Churchdown, United Kingdom
Current Conditions -  °F | °C
As of 3:50 PM on Wednesday 28 Jan 2015 (Local Time) from EGBJ Reporting Station
Few Clouds Few Clouds  
Wind Chill: 35°   Ceiling: Unl
Heat Index: 43°   Visibility: 6mi
Dew Point: 28°   Wind: 18mph
Humidity: 57%   Direction: 270°W
Pressure: 29.62"   Gusts: NA
Location:  51.89°N, 2.18°W
Report Text: EGBJ 281550Z 27016KT 9999 FEW018 06/M02 Q1003
Loading
Personal Weather Stations






























Interactive Weather Map New forecast layout! Learn more

10-Day Weather Forecast

Advertisements
Track Severe Weather on mobile